Terminal Aerodrome Forecast
Issued by NWS

Home | Current Version | Previous Version | Text Only | Print | Product List | Glossary On
Versions: 1 2 3 4 5 6 7 8 9 10 11 12 13 14 15
000
FTUS43 KPAH 241700
TAFCGI
TAF
KCGI 241720Z 2418/2518 25004KT P6SM SCT030 BKN250
     FM250000 VRB02KT P6SM BKN250
     FM250700 23002KT 2SM BR MIFG SCT250
     FM251300 28006KT P6SM SKC=

USA.gov is the U.S. government's official web portal to all federal, state and local government web resources and services.